Time;durP1;ratioP1;P1;durP2;ratioP2;P2;SDS_P1;SDS_P2;PMS_P1;PMS_P2;Temp;Humidity;BMP_temperature;BMP_pressure;BME280_temperature;BME280_humidity;BME280_pressure;Samples;Min_cycle;Max_cycle;Signal;HPM_P1;HPM_P2
2023/10/28 00:00:08;;;;;;;1999.90;999.90;;;;;;;;;;5086888;28;20191;-68
2023/10/28 00:02:35;;;;;;;1999.90;999.90;;;;;;;;;;5069307;28;20274;-67
2023/10/28 00:05:05;;;;;;;1999.90;999.90;;;;;;;;;;5086741;28;20196;-68
2023/10/28 00:07:33;;;;;;;1999.90;999.90;;;;;;;;;;5087427;28;20226;-67
2023/10/28 00:10:00;;;;;;;1999.90;999.90;;;;;;;;;;5086327;28;20557;-67
2023/10/28 00:12:28;;;;;;;1999.90;999.90;;;;;;;;;;5087184;28;20194;-67
2023/10/28 00:14:55;;;;;;;1999.90;999.90;;;;;;;;;;5086776;28;20703;-67
2023/10/28 00:17:24;;;;;;;1999.90;999.90;;;;;;;;;;5085542;28;20192;-67
2023/10/28 00:19:52;;;;;;;1999.90;999.90;;;;;;;;;;5086300;28;20258;-67
2023/10/28 00:22:21;;;;;;;1999.90;999.90;;;;;;;;;;5085183;28;20199;-67
2023/10/28 00:24:49;;;;;;;1999.90;999.90;;;;;;;;;;5086273;28;20214;-68
2023/10/28 00:27:16;;;;;;;1999.90;999.90;;;;;;;;;;5085061;28;20196;-67
2023/10/28 00:29:48;;;;;;;1999.90;999.90;;;;;;;;;;5067276;28;20508;-67
2023/10/28 00:32:15;;;;;;;1999.90;999.90;;;;;;;;;;5064825;28;20602;-67
2023/10/28 00:34:44;;;;;;;1999.90;999.90;;;;;;;;;;5069140;28;20214;-68
2023/10/28 00:37:12;;;;;;;1999.90;999.90;;;;;;;;;;5086156;28;20675;-68
2023/10/28 00:39:39;;;;;;;1999.90;999.90;;;;;;;;;;5086266;28;20575;-68
2023/10/28 00:42:07;;;;;;;1999.90;999.90;;;;;;;;;;5086972;28;20194;-68
2023/10/28 00:44:34;;;;;;;1999.90;999.90;;;;;;;;;;5085940;28;20194;-68
2023/10/28 00:47:02;;;;;;;1999.90;999.90;;;;;;;;;;5087233;28;20699;-68
2023/10/28 00:49:29;;;;;;;1999.90;999.90;;;;;;;;;;5084246;28;20769;-69
2023/10/28 00:51:59;;;;;;;1999.90;999.90;;;;;;;;;;5086677;28;20192;-69
2023/10/28 00:54:26;;;;;;;1999.90;999.90;;;;;;;;;;5086033;28;20229;-69
2023/10/28 00:56:55;;;;;;;1999.90;999.90;;;;;;;;;;5084942;28;20208;-69
2023/10/28 00:59:22;;;;;;;1999.90;999.90;;;;;;;;;;5086252;28;20668;-70
2023/10/28 01:01:49;;;;;;;1999.90;999.90;;;;;;;;;;5084780;28;20184;-70
2023/10/28 01:04:17;;;;;;;1999.90;999.90;;;;;;;;;;5086243;28;20215;-70
2023/10/28 01:06:44;;;;;;;1999.90;999.90;;;;;;;;;;5085117;28;20201;-70
2023/10/28 01:09:13;;;;;;;1999.90;999.90;;;;;;;;;;5086140;28;20202;-69
2023/10/28 01:11:43;;;;;;;1999.90;999.90;;;;;;;;;;5090370;28;20309;-69
2023/10/28 01:14:11;;;;;;;1999.90;999.90;;;;;;;;;;5090603;28;20590;-69
2023/10/28 01:16:40;;;;;;;1999.90;999.90;;;;;;;;;;5090089;28;20180;-69
2023/10/28 01:19:09;;;;;;;1999.90;999.90;;;;;;;;;;5089947;28;20249;-69
2023/10/28 01:21:40;;;;;;;1999.90;999.90;;;;;;;;;;5088825;28;20536;-69
2023/10/28 01:24:08;;;;;;;1999.90;999.90;;;;;;;;;;5089861;28;20179;-69
2023/10/28 01:26:36;;;;;;;1999.90;999.90;;;;;;;;;;5089903;28;20428;-69
2023/10/28 01:29:05;;;;;;;1999.90;999.90;;;;;;;;;;5090457;28;20640;-68
2023/10/28 01:31:33;;;;;;;1999.90;999.90;;;;;;;;;;5089567;28;20214;-69
2023/10/28 01:34:00;;;;;;;1999.90;999.90;;;;;;;;;;5088674;28;20226;-69
2023/10/28 01:36:29;;;;;;;1999.90;999.90;;;;;;;;;;5088773;28;20902;-69
2023/10/28 01:38:57;;;;;;;1999.90;999.90;;;;;;;;;;5088711;28;20281;-69
2023/10/28 01:41:25;;;;;;;1999.90;999.90;;;;;;;;;;5089119;28;20179;-69
2023/10/28 01:43:52;;;;;;;1999.90;999.90;;;;;;;;;;5089855;28;20204;-69
2023/10/28 01:46:19;;;;;;;1999.90;999.90;;;;;;;;;;5089597;28;20196;-69
2023/10/28 01:48:47;;;;;;;1999.90;999.90;;;;;;;;;;5089082;28;20645;-69
2023/10/28 01:51:14;;;;;;;1999.90;999.90;;;;;;;;;;5088294;28;20203;-69
2023/10/28 01:53:42;;;;;;;1999.90;999.90;;;;;;;;;;5089175;28;20660;-69
2023/10/28 01:56:11;;;;;;;1999.90;999.90;;;;;;;;;;5089862;28;20212;-69
2023/10/28 01:58:38;;;;;;;1999.90;999.90;;;;;;;;;;5088720;28;20206;-69
2023/10/28 02:01:05;;;;;;;1999.90;999.90;;;;;;;;;;5088190;28;20575;-69
2023/10/28 02:03:33;;;;;;;1999.90;999.90;;;;;;;;;;5088874;28;20192;-69
2023/10/28 02:06:01;;;;;;;1999.90;999.90;;;;;;;;;;5089385;28;20286;-70
2023/10/28 02:08:28;;;;;;;1999.90;999.90;;;;;;;;;;5089003;28;20188;-70
2023/10/28 02:10:55;;;;;;;1999.90;999.90;;;;;;;;;;5088995;28;20680;-70
2023/10/28 02:13:24;;;;;;;1999.90;999.90;;;;;;;;;;5089637;28;20203;-69
2023/10/28 02:15:51;;;;;;;1999.90;999.90;;;;;;;;;;5088752;28;20574;-70
2023/10/28 02:18:19;;;;;;;1999.90;999.90;;;;;;;;;;5089097;28;20306;-69
2023/10/28 02:20:46;;;;;;;1999.90;999.90;;;;;;;;;;5088494;28;20197;-70
2023/10/28 02:23:14;;;;;;;1999.90;999.90;;;;;;;;;;5088738;28;20223;-70
2023/10/28 02:25:42;;;;;;;1999.90;999.90;;;;;;;;;;5088442;28;20193;-70
2023/10/28 02:28:10;;;;;;;1999.90;999.90;;;;;;;;;;5088502;28;20204;-69
2023/10/28 02:30:40;;;;;;;1999.90;999.90;;;;;;;;;;5088788;28;20711;-69
2023/10/28 02:33:07;;;;;;;1999.90;999.90;;;;;;;;;;5088430;28;20215;-69
2023/10/28 02:35:35;;;;;;;1999.90;999.90;;;;;;;;;;5088688;28;20218;-69
2023/10/28 02:38:02;;;;;;;1999.90;999.90;;;;;;;;;;5088359;28;20668;-69
2023/10/28 02:40:30;;;;;;;1999.90;999.90;;;;;;;;;;5088540;28;20221;-70
2023/10/28 02:42:57;;;;;;;1999.90;999.90;;;;;;;;;;5087526;28;20207;-69
2023/10/28 02:45:24;;;;;;;1999.90;999.90;;;;;;;;;;5088575;28;20214;-69
2023/10/28 02:47:53;;;;;;;1999.90;999.90;;;;;;;;;;5088176;28;20558;-69
2023/10/28 02:50:20;;;;;;;1999.90;999.90;;;;;;;;;;5088052;28;20212;-69
2023/10/28 02:52:50;;;;;;;1999.90;999.90;;;;;;;;;;5088467;28;20664;-69
2023/10/28 02:55:17;;;;;;;1999.90;999.90;;;;;;;;;;5088236;28;20698;-69
2023/10/28 02:57:45;;;;;;;1999.90;999.90;;;;;;;;;;5088115;28;20282;-69
2023/10/28 03:00:12;;;;;;;1999.90;999.90;;;;;;;;;;5088170;28;20193;-69
2023/10/28 03:02:40;;;;;;;1999.90;999.90;;;;;;;;;;5086243;28;20202;-69
2023/10/28 03:05:09;;;;;;;1999.90;999.90;;;;;;;;;;5088078;28;20648;-69
2023/10/28 03:07:37;;;;;;;1999.90;999.90;;;;;;;;;;5087322;28;20992;-69
2023/10/28 03:10:04;;;;;;;1999.90;999.90;;;;;;;;;;5088345;28;20184;-68
2023/10/28 03:12:32;;;;;;;1999.90;999.90;;;;;;;;;;5087748;28;20285;-68
2023/10/28 03:14:59;;;;;;;1999.90;999.90;;;;;;;;;;5085727;28;20222;-69
2023/10/28 03:17:27;;;;;;;1999.90;999.90;;;;;;;;;;5088277;28;20192;-69
2023/10/28 03:19:54;;;;;;;1999.90;999.90;;;;;;;;;;5087090;28;20189;-69
2023/10/28 03:22:23;;;;;;;1999.90;999.90;;;;;;;;;;5088031;28;20307;-69
2023/10/28 03:24:50;;;;;;;1999.90;999.90;;;;;;;;;;5087344;28;20203;-69
2023/10/28 03:27:17;;;;;;;1999.90;999.90;;;;;;;;;;5088169;28;20186;-69
2023/10/28 03:29:45;;;;;;;1999.90;999.90;;;;;;;;;;5087259;28;20206;-69
2023/10/28 03:32:12;;;;;;;1999.90;999.90;;;;;;;;;;5085605;28;20677;-68
2023/10/28 03:34:40;;;;;;;1999.90;999.90;;;;;;;;;;5087576;28;20223;-69
2023/10/28 03:37:07;;;;;;;1999.90;999.90;;;;;;;;;;5087210;28;20641;-69
2023/10/28 03:39:38;;;;;;;1999.90;999.90;;;;;;;;;;5087503;28;20247;-68
2023/10/28 03:42:06;;;;;;;1999.90;999.90;;;;;;;;;;5086697;28;20187;-69
2023/10/28 03:44:34;;;;;;;1999.90;999.90;;;;;;;;;;5088117;28;20637;-69
2023/10/28 03:47:01;;;;;;;1999.90;999.90;;;;;;;;;;5084459;28;20214;-69
2023/10/28 03:49:28;;;;;;;1999.90;999.90;;;;;;;;;;5087557;28;20549;-68
2023/10/28 03:51:56;;;;;;;1999.90;999.90;;;;;;;;;;5086946;28;20207;-69
2023/10/28 03:54:23;;;;;;;1999.90;999.90;;;;;;;;;;5087188;28;20206;-68
2023/10/28 03:56:52;;;;;;;1999.90;999.90;;;;;;;;;;5087463;28;20208;-68
2023/10/28 03:59:20;;;;;;;1999.90;999.90;;;;;;;;;;5085288;28;20199;-68
2023/10/28 04:01:48;;;;;;;1999.90;999.90;;;;;;;;;;5087588;28;20532;-68
2023/10/28 04:04:15;;;;;;;1999.90;999.90;;;;;;;;;;5086705;28;20702;-68
2023/10/28 04:06:45;;;;;;;1999.90;999.90;;;;;;;;;;5085813;28;20280;-69
2023/10/28 04:09:14;;;;;;;1999.90;999.90;;;;;;;;;;5086933;28;20646;-68
2023/10/28 04:11:41;;;;;;;1999.90;999.90;;;;;;;;;;5086953;28;20199;-68
2023/10/28 04:14:10;;;;;;;1999.90;999.90;;;;;;;;;;5086807;28;20212;-68
2023/10/28 04:16:37;;;;;;;1999.90;999.90;;;;;;;;;;5084989;28;20216;-68
2023/10/28 04:19:04;;;;;;;1999.90;999.90;;;;;;;;;;5087237;28;20195;-68
2023/10/28 04:21:32;;;;;;;1999.90;999.90;;;;;;;;;;5086619;28;20198;-68
2023/10/28 04:23:59;;;;;;;1999.90;999.90;;;;;;;;;;5085301;28;20192;-67
2023/10/28 04:26:26;;;;;;;1999.90;999.90;;;;;;;;;;5085297;28;20301;-68
2023/10/28 04:28:54;;;;;;;1999.90;999.90;;;;;;;;;;5086208;28;20193;-68
2023/10/28 04:31:23;;;;;;;1999.90;999.90;;;;;;;;;;5087223;28;20199;-68
2023/10/28 04:33:50;;;;;;;1999.90;999.90;;;;;;;;;;5086189;28;20190;-68
2023/10/28 04:36:18;;;;;;;1999.90;999.90;;;;;;;;;;5085464;28;20225;-68
2023/10/28 04:38:45;;;;;;;1999.90;999.90;;;;;;;;;;5085978;28;20195;-67
2023/10/28 04:41:12;;;;;;;1999.90;999.90;;;;;;;;;;5086614;28;20179;-68
2023/10/28 04:43:40;;;;;;;1999.90;999.90;;;;;;;;;;5086442;28;20202;-68
2023/10/28 04:46:07;;;;;;;1999.90;999.90;;;;;;;;;;5090592;28;20610;-67
2023/10/28 04:48:36;;;;;;;1999.90;999.90;;;;;;;;;;5090822;28;20197;-68
2023/10/28 04:51:06;;;;;;;1999.90;999.90;;;;;;;;;;5090053;28;20621;-68
2023/10/28 04:53:33;;;;;;;1999.90;999.90;;;;;;;;;;5091241;28;20236;-68
2023/10/28 04:56:01;;;;;;;1999.90;999.90;;;;;;;;;;5089592;28;20239;-67
2023/10/28 04:58:28;;;;;;;1999.90;999.90;;;;;;;;;;5089160;28;20202;-68
2023/10/28 05:00:55;;;;;;;1999.90;999.90;;;;;;;;;;5090552;28;20186;-68
2023/10/28 05:03:23;;;;;;;1999.90;999.90;;;;;;;;;;5090472;28;20204;-68
2023/10/28 05:05:52;;;;;;;1999.90;999.90;;;;;;;;;;5090652;28;20193;-68
2023/10/28 05:08:20;;;;;;;1999.90;999.90;;;;;;;;;;5089936;28;20223;-68
2023/10/28 05:10:48;;;;;;;1999.90;999.90;;;;;;;;;;5090935;28;20196;-68
2023/10/28 05:13:15;;;;;;;1999.90;999.90;;;;;;;;;;5089613;28;20546;-68
2023/10/28 05:15:42;;;;;;;1999.90;999.90;;;;;;;;;;5090705;28;20220;-67
2023/10/28 05:18:10;;;;;;;1999.90;999.90;;;;;;;;;;5089498;28;20192;-68
2023/10/28 05:20:37;;;;;;;1999.90;999.90;;;;;;;;;;5090377;28;20190;-68
2023/10/28 05:23:06;;;;;;;1999.90;999.90;;;;;;;;;;5089565;28;20204;-68
2023/10/28 05:25:33;;;;;;;1999.90;999.90;;;;;;;;;;5090098;28;20203;-68
2023/10/28 05:28:01;;;;;;;1999.90;999.90;;;;;;;;;;5089853;28;20687;-67
2023/10/28 05:30:28;;;;;;;1999.90;999.90;;;;;;;;;;5089608;28;20664;-68
2023/10/28 05:32:55;;;;;;;1999.90;999.90;;;;;;;;;;5089264;28;20221;-68
2023/10/28 05:35:21;;;;;;;1999.90;999.90;;;;;;;;;;5088765;28;20217;-68
2023/10/28 05:37:49;;;;;;;1999.90;999.90;;;;;;;;;;5088638;28;20675;-68
2023/10/28 05:40:18;;;;;;;1999.90;999.90;;;;;;;;;;5089203;28;20228;-68
2023/10/28 05:42:45;;;;;;;1999.90;999.90;;;;;;;;;;5089613;28;20200;-68
2023/10/28 05:45:14;;;;;;;1999.90;999.90;;;;;;;;;;5089335;28;20610;-68
2023/10/28 05:47:41;;;;;;;1999.90;999.90;;;;;;;;;;5089297;28;20539;-68
2023/10/28 05:50:09;;;;;;;1999.90;999.90;;;;;;;;;;5089506;28;20780;-68
2023/10/28 05:52:38;;;;;;;1999.90;999.90;;;;;;;;;;5089151;28;20570;-68
2023/10/28 05:55:05;;;;;;;1999.90;999.90;;;;;;;;;;5088679;28;20200;-68
2023/10/28 05:57:34;;;;;;;1999.90;999.90;;;;;;;;;;5089389;28;20195;-68
2023/10/28 06:00:02;;;;;;;1999.90;999.90;;;;;;;;;;5087797;28;20203;-68
2023/10/28 06:02:29;;;;;;;1999.90;999.90;;;;;;;;;;5089523;28;20281;-68
2023/10/28 06:04:57;;;;;;;1999.90;999.90;;;;;;;;;;5089167;28;20197;-68
2023/10/28 06:07:24;;;;;;;1999.90;999.90;;;;;;;;;;5089662;28;20192;-68
2023/10/28 06:09:51;;;;;;;1999.90;999.90;;;;;;;;;;5088525;28;20195;-68
2023/10/28 06:12:20;;;;;;;1999.90;999.90;;;;;;;;;;5089148;28;20193;-68
2023/10/28 06:14:49;;;;;;;1999.90;999.90;;;;;;;;;;5087555;28;20198;-68
2023/10/28 06:17:16;;;;;;;1999.90;999.90;;;;;;;;;;5088128;28;20712;-68
2023/10/28 06:19:43;;;;;;;1999.90;999.90;;;;;;;;;;5089130;28;20238;-68
2023/10/28 06:22:12;;;;;;;1999.90;999.90;;;;;;;;;;5088208;28;20193;-68
2023/10/28 06:24:40;;;;;;;1999.90;999.90;;;;;;;;;;5089571;28;20192;-68
2023/10/28 06:27:08;;;;;;;1999.90;999.90;;;;;;;;;;5088372;28;20203;-68
2023/10/28 06:29:36;;;;;;;1999.90;999.90;;;;;;;;;;5088835;28;20189;-68
2023/10/28 06:32:08;;;;;;;1999.90;999.90;;;;;;;;;;5088760;28;20192;-67
2023/10/28 06:34:35;;;;;;;1999.90;999.90;;;;;;;;;;5088495;28;20190;-68
2023/10/28 06:37:03;;;;;;;1999.90;999.90;;;;;;;;;;5088915;28;20218;-68
2023/10/28 06:39:30;;;;;;;1999.90;999.90;;;;;;;;;;5087558;28;20569;-68
2023/10/28 06:41:57;;;;;;;1999.90;999.90;;;;;;;;;;5088960;28;20518;-68
2023/10/28 06:44:25;;;;;;;1999.90;999.90;;;;;;;;;;5087311;28;20190;-68
2023/10/28 06:46:52;;;;;;;1999.90;999.90;;;;;;;;;;5089130;28;20192;-67
2023/10/28 06:49:21;;;;;;;1999.90;999.90;;;;;;;;;;5085869;28;20287;-68
2023/10/28 06:51:50;;;;;;;1999.90;999.90;;;;;;;;;;5087552;28;20191;-67
2023/10/28 06:54:18;;;;;;;1999.90;999.90;;;;;;;;;;5085323;28;20649;-67
2023/10/28 06:56:46;;;;;;;1999.90;999.90;;;;;;;;;;5087796;28;20771;-68
2023/10/28 06:59:13;;;;;;;1999.90;999.90;;;;;;;;;;5088025;28;20194;-69
2023/10/28 07:01:40;;;;;;;1999.90;999.90;;;;;;;;;;5087902;28;20656;-68
2023/10/28 07:04:08;;;;;;;1999.90;999.90;;;;;;;;;;5088560;28;20194;-68
2023/10/28 07:06:36;;;;;;;1999.90;999.90;;;;;;;;;;5086650;28;20276;-68
2023/10/28 07:09:04;;;;;;;1999.90;999.90;;;;;;;;;;5087636;28;20199;-68
2023/10/28 07:11:32;;;;;;;1999.90;999.90;;;;;;;;;;5086170;28;20197;-68
2023/10/28 07:13:59;;;;;;;1999.90;999.90;;;;;;;;;;5087721;28;20261;-68
2023/10/28 07:16:27;;;;;;;1999.90;999.90;;;;;;;;;;5086718;28;20241;-67
2023/10/28 07:18:54;;;;;;;1999.90;999.90;;;;;;;;;;5084454;28;20192;-68
2023/10/28 07:21:22;;;;;;;1999.90;999.90;;;;;;;;;;5082983;28;20251;-68
2023/10/28 07:23:50;;;;;;;1999.90;999.90;;;;;;;;;;5085092;28;20193;-68
2023/10/28 07:26:18;;;;;;;1999.90;999.90;;;;;;;;;;5084645;28;20196;-68
2023/10/28 07:28:46;;;;;;;1999.90;999.90;;;;;;;;;;5087103;28;20739;-68
2023/10/28 07:31:13;;;;;;;1999.90;999.90;;;;;;;;;;5086756;28;20189;-68
2023/10/28 07:33:40;;;;;;;1999.90;999.90;;;;;;;;;;5086778;28;20228;-68
2023/10/28 07:36:08;;;;;;;1999.90;999.90;;;;;;;;;;5086075;28;20668;-68
2023/10/28 07:38:36;;;;;;;1999.90;999.90;;;;;;;;;;5086711;28;20186;-68
2023/10/28 07:41:06;;;;;;;1999.90;999.90;;;;;;;;;;5085686;28;20224;-68
2023/10/28 07:43:33;;;;;;;1999.90;999.90;;;;;;;;;;5084473;28;20189;-68
2023/10/28 07:46:01;;;;;;;1999.90;999.90;;;;;;;;;;5086927;28;20197;-68
2023/10/28 07:48:28;;;;;;;1999.90;999.90;;;;;;;;;;5084599;28;20262;-68
2023/10/28 07:50:55;;;;;;;1999.90;999.90;;;;;;;;;;5087388;28;20193;-68
2023/10/28 07:53:23;;;;;;;1999.90;999.90;;;;;;;;;;5083480;28;20202;-68
2023/10/28 07:55:50;;;;;;;1999.90;999.90;;;;;;;;;;5087524;28;20186;-68
2023/10/28 07:58:19;;;;;;;1999.90;999.90;;;;;;;;;;5086728;28;20192;-68
2023/10/28 08:00:46;;;;;;;1999.90;999.90;;;;;;;;;;5084861;28;20193;-68
2023/10/28 08:03:13;;;;;;;1999.90;999.90;;;;;;;;;;5086812;28;20197;-67
2023/10/28 08:05:42;;;;;;;1999.90;999.90;;;;;;;;;;5086194;28;20197;-68
2023/10/28 08:08:10;;;;;;;1999.90;999.90;;;;;;;;;;5065457;28;20198;-67
2023/10/28 08:10:40;;;;;;;1999.90;999.90;;;;;;;;;;5066326;28;20672;-68
2023/10/28 08:13:07;;;;;;;1999.90;999.90;;;;;;;;;;5067340;28;20226;-68
2023/10/28 08:15:36;;;;;;;1999.90;999.90;;;;;;;;;;5065882;28;20206;-68
2023/10/28 08:18:03;;;;;;;1999.90;999.90;;;;;;;;;;5066702;28;20222;-68
2023/10/28 08:20:31;;;;;;;1999.90;999.90;;;;;;;;;;5065313;28;20190;-68
2023/10/28 08:22:58;;;;;;;1999.90;999.90;;;;;;;;;;5066444;28;20650;-68
2023/10/28 08:25:26;;;;;;;1999.90;999.90;;;;;;;;;;5066578;28;20194;-68
2023/10/28 08:27:53;;;;;;;1999.90;999.90;;;;;;;;;;5066426;28;20701;-68
2023/10/28 08:30:20;;;;;;;1999.90;999.90;;;;;;;;;;5066915;28;20195;-68
2023/10/28 08:32:49;;;;;;;1999.90;999.90;;;;;;;;;;5066064;28;20198;-68
2023/10/28 08:35:19;;;;;;;1999.90;999.90;;;;;;;;;;5073862;28;20235;-68
2023/10/28 08:37:48;;;;;;;1999.90;999.90;;;;;;;;;;5084724;28;20271;-69
2023/10/28 08:40:15;;;;;;;1999.90;999.90;;;;;;;;;;5086331;28;20657;-68
2023/10/28 08:42:43;;;;;;;1999.90;999.90;;;;;;;;;;5086194;28;20186;-69
2023/10/28 08:45:11;;;;;;;1999.90;999.90;;;;;;;;;;5086200;28;20382;-69
2023/10/28 08:47:39;;;;;;;1999.90;999.90;;;;;;;;;;5086562;28;20201;-69
2023/10/28 08:50:09;;;;;;;1999.90;999.90;;;;;;;;;;5086199;28;20646;-68
2023/10/28 08:52:37;;;;;;;1999.90;999.90;;;;;;;;;;5085300;28;20201;-69
2023/10/28 08:55:07;;;;;;;1999.90;999.90;;;;;;;;;;5086405;28;20194;-69
2023/10/28 08:57:36;;;;;;;1999.90;999.90;;;;;;;;;;5086101;28;20324;-69
2023/10/28 09:00:11;;;;;;;1999.90;999.90;;;;;;;;;;5084861;28;20289;-69
2023/10/28 09:02:41;;;;;;;1999.90;999.90;;;;;;;;;;5085779;28;20696;-69
2023/10/28 09:05:10;;;;;;;1999.90;999.90;;;;;;;;;;5086065;28;20190;-69
2023/10/28 09:07:38;;;;;;;1999.90;999.90;;;;;;;;;;5085673;28;20665;-70
2023/10/28 09:10:05;;;;;;;1999.90;999.90;;;;;;;;;;5086635;28;20194;-69
2023/10/28 09:12:33;;;;;;;1999.90;999.90;;;;;;;;;;5084109;28;20195;-69
2023/10/28 09:15:00;;;;;;;1999.90;999.90;;;;;;;;;;5085835;28;20194;-69
2023/10/28 09:17:28;;;;;;;1999.90;999.90;;;;;;;;;;5090975;28;20675;-69
2023/10/28 09:19:56;;;;;;;1999.90;999.90;;;;;;;;;;5103881;28;20202;-69
2023/10/28 09:22:24;;;;;;;1999.90;999.90;;;;;;;;;;5106924;28;20202;-69
2023/10/28 09:24:53;;;;;;;1999.90;999.90;;;;;;;;;;5105619;28;20194;-69
2023/10/28 09:27:21;;;;;;;1999.90;999.90;;;;;;;;;;5106760;28;20190;-69
2023/10/28 09:29:49;;;;;;;1999.90;999.90;;;;;;;;;;5106436;28;20311;-68
2023/10/28 09:32:18;;;;;;;1999.90;999.90;;;;;;;;;;5110143;28;20275;-69
2023/10/28 09:34:45;;;;;;;1999.90;999.90;;;;;;;;;;5106611;28;20275;-70
2023/10/28 09:37:13;;;;;;;1999.90;999.90;;;;;;;;;;5089266;28;20296;-69
2023/10/28 09:39:46;;;;;;;1999.90;999.90;;;;;;;;;;5087998;28;20222;-70
2023/10/28 09:42:14;;;;;;;1999.90;999.90;;;;;;;;;;5089318;28;20400;-69
2023/10/28 09:44:44;;;;;;;1999.90;999.90;;;;;;;;;;5089582;28;20202;-69
2023/10/28 09:47:16;;;;;;;1999.90;999.90;;;;;;;;;;5089491;28;20548;-69
2023/10/28 09:49:45;;;;;;;1999.90;999.90;;;;;;;;;;5089251;28;20202;-69
2023/10/28 09:52:13;;;;;;;1999.90;999.90;;;;;;;;;;5089613;28;20210;-69
2023/10/28 09:54:43;;;;;;;1999.90;999.90;;;;;;;;;;5088903;28;20665;-69
2023/10/28 09:57:11;;;;;;;1999.90;999.90;;;;;;;;;;5089841;28;20293;-70
2023/10/28 09:59:39;;;;;;;1999.90;999.90;;;;;;;;;;5088999;28;20187;-69
2023/10/28 10:02:13;;;;;;;1999.90;999.90;;;;;;;;;;5089302;28;20204;-70
2023/10/28 10:04:43;;;;;;;1999.90;999.90;;;;;;;;;;5089402;28;20191;-70
2023/10/28 10:07:11;;;;;;;1999.90;999.90;;;;;;;;;;5089114;28;20638;-70
2023/10/28 10:09:47;;;;;;;1999.90;999.90;;;;;;;;;;5087482;28;20209;-70
2023/10/28 10:12:15;;;;;;;1999.90;999.90;;;;;;;;;;5088637;28;20186;-71
2023/10/28 10:14:46;;;;;;;1999.90;999.90;;;;;;;;;;5089577;28;20207;-70
2023/10/28 10:17:17;;;;;;;1999.90;999.90;;;;;;;;;;5088429;28;20221;-70
2023/10/28 10:19:45;;;;;;;1999.90;999.90;;;;;;;;;;5089019;28;20180;-70
2023/10/28 10:22:14;;;;;;;1999.90;999.90;;;;;;;;;;5088761;28;20253;-70
2023/10/28 10:24:50;;;;;;;1999.90;999.90;;;;;;;;;;5088458;28;20204;-70
2023/10/28 10:27:34;;;;;;;1999.90;999.90;;;;;;;;;;5088859;28;20188;-70
2023/10/28 10:30:04;;;;;;;1999.90;999.90;;;;;;;;;;5087442;28;20180;-70
2023/10/28 10:32:31;;;;;;;1999.90;999.90;;;;;;;;;;5089044;28;20181;-69
2023/10/28 10:34:59;;;;;;;1999.90;999.90;;;;;;;;;;5086782;28;20193;-71
2023/10/28 10:37:28;;;;;;;1999.90;999.90;;;;;;;;;;5086708;28;20215;-70
2023/10/28 10:39:57;;;;;;;1999.90;999.90;;;;;;;;;;5086383;28;20781;-69
2023/10/28 10:42:26;;;;;;;1999.90;999.90;;;;;;;;;;5086377;28;20199;-70
2023/10/28 10:44:54;;;;;;;1999.90;999.90;;;;;;;;;;5088754;28;20196;-70
2023/10/28 10:47:22;;;;;;;1999.90;999.90;;;;;;;;;;5087987;28;20227;-69
2023/10/28 10:49:49;;;;;;;1999.90;999.90;;;;;;;;;;5088899;28;20186;-69
2023/10/28 10:52:17;;;;;;;1999.90;999.90;;;;;;;;;;5086852;28;20199;-69
2023/10/28 10:54:44;;;;;;;1999.90;999.90;;;;;;;;;;5087905;28;20482;-69
2023/10/28 10:57:13;;;;;;;1999.90;999.90;;;;;;;;;;5087601;28;20230;-70
2023/10/28 10:59:40;;;;;;;1999.90;999.90;;;;;;;;;;5086253;28;20203;-69
2023/10/28 11:02:10;;;;;;;1999.90;999.90;;;;;;;;;;5088233;28;20207;-69
2023/10/28 11:04:37;;;;;;;1999.90;999.90;;;;;;;;;;5087586;28;20277;-69
2023/10/28 11:07:06;;;;;;;1999.90;999.90;;;;;;;;;;5087761;28;20205;-69
2023/10/28 11:09:33;;;;;;;1999.90;999.90;;;;;;;;;;5087597;28;20200;-69
2023/10/28 11:12:01;;;;;;;1999.90;999.90;;;;;;;;;;5085477;28;20195;-69
2023/10/28 11:14:30;;;;;;;1999.90;999.90;;;;;;;;;;5087528;28;20236;-69
2023/10/28 11:16:59;;;;;;;1999.90;999.90;;;;;;;;;;5087015;28;20240;-69
2023/10/28 11:19:26;;;;;;;1999.90;999.90;;;;;;;;;;5088151;28;20194;-69
2023/10/28 11:21:54;;;;;;;1999.90;999.90;;;;;;;;;;5087387;28;20194;-69
2023/10/28 11:24:24;;;;;;;1999.90;999.90;;;;;;;;;;5087750;28;20202;-69
2023/10/28 11:26:51;;;;;;;1999.90;999.90;;;;;;;;;;5087611;28;20247;-68
2023/10/28 11:29:18;;;;;;;1999.90;999.90;;;;;;;;;;5085283;28;20289;-68
2023/10/28 11:31:47;;;;;;;1999.90;999.90;;;;;;;;;;5087639;28;20194;-68
2023/10/28 11:34:15;;;;;;;1999.90;999.90;;;;;;;;;;5086981;28;20285;-67
2023/10/28 11:36:42;;;;;;;1999.90;999.90;;;;;;;;;;5087969;28;20194;-68
2023/10/28 11:39:12;;;;;;;1999.90;999.90;;;;;;;;;;5085886;28;20724;-68
2023/10/28 11:41:44;;;;;;;1999.90;999.90;;;;;;;;;;5087058;28;20224;-67
2023/10/28 11:44:12;;;;;;;1999.90;999.90;;;;;;;;;;5086799;28;20625;-67
2023/10/28 11:46:39;;;;;;;1999.90;999.90;;;;;;;;;;5087471;28;20229;-67
2023/10/28 11:49:08;;;;;;;1999.90;999.90;;;;;;;;;;5087390;28;20279;-71
2023/10/28 11:51:35;;;;;;;1999.90;999.90;;;;;;;;;;5086888;28;20206;-71
2023/10/28 11:54:03;;;;;;;1999.90;999.90;;;;;;;;;;5087039;28;20192;-70
2023/10/28 11:56:32;;;;;;;1999.90;999.90;;;;;;;;;;5086712;28;20668;-70
2023/10/28 11:59:01;;;;;;;1999.90;999.90;;;;;;;;;;5087489;28;20406;-71
2023/10/28 12:01:31;;;;;;;1999.90;999.90;;;;;;;;;;5085422;28;20204;-71
2023/10/28 12:03:59;;;;;;;1999.90;999.90;;;;;;;;;;5086977;28;20192;-71
2023/10/28 12:06:27;;;;;;;1999.90;999.90;;;;;;;;;;5086511;28;20244;-72
2023/10/28 12:08:58;;;;;;;1999.90;999.90;;;;;;;;;;5086712;28;20214;-72
2023/10/28 12:11:25;;;;;;;1999.90;999.90;;;;;;;;;;5086739;28;20205;-71
2023/10/28 12:13:52;;;;;;;1999.90;999.90;;;;;;;;;;5084787;28;20197;-71
2023/10/28 12:16:20;;;;;;;1999.90;999.90;;;;;;;;;;5086327;28;20548;-73
2023/10/28 12:18:47;;;;;;;1999.90;999.90;;;;;;;;;;5086295;28;20236;-72
2023/10/28 12:21:15;;;;;;;1999.90;999.90;;;;;;;;;;5084899;28;20213;-71
2023/10/28 12:23:44;;;;;;;1999.90;999.90;;;;;;;;;;5086883;28;20282;-71
2023/10/28 12:26:11;;;;;;;1999.90;999.90;;;;;;;;;;5084326;28;20190;-71
2023/10/28 12:28:39;;;;;;;1999.90;999.90;;;;;;;;;;5085346;28;20198;-70
2023/10/28 12:31:07;;;;;;;1999.90;999.90;;;;;;;;;;5086262;28;20197;-71
2023/10/28 12:33:34;;;;;;;1999.90;999.90;;;;;;;;;;5087275;28;20252;-70
2023/10/28 12:36:02;;;;;;;1999.90;999.90;;;;;;;;;;5084912;28;20205;-71
2023/10/28 12:38:30;;;;;;;1999.90;999.90;;;;;;;;;;5086031;28;20297;-70
2023/10/28 12:40:58;;;;;;;1999.90;999.90;;;;;;;;;;5084867;28;20977;-69
2023/10/28 12:43:27;;;;;;;1999.90;999.90;;;;;;;;;;5085793;28;20193;-69
2023/10/28 12:45:55;;;;;;;1999.90;999.90;;;;;;;;;;5086504;28;20274;-67
2023/10/28 12:48:22;;;;;;;1999.90;999.90;;;;;;;;;;5083368;28;20196;-68
2023/10/28 12:50:50;;;;;;;1999.90;999.90;;;;;;;;;;5086626;28;20196;-71
2023/10/28 12:53:17;;;;;;;1999.90;999.90;;;;;;;;;;5086376;28;20273;-70
2023/10/28 12:55:44;;;;;;;1999.90;999.90;;;;;;;;;;5084793;28;20663;-71
2023/10/28 12:58:13;;;;;;;1999.90;999.90;;;;;;;;;;5085740;28;20242;-72
2023/10/28 13:00:40;;;;;;;1999.90;999.90;;;;;;;;;;5084237;28;20192;-70
2023/10/28 13:03:10;;;;;;;1999.90;999.90;;;;;;;;;;5086566;28;20294;-71
2023/10/28 13:05:37;;;;;;;1999.90;999.90;;;;;;;;;;5085932;28;20210;-67
2023/10/28 13:08:05;;;;;;;1999.90;999.90;;;;;;;;;;5090659;28;20313;-70
2023/10/28 13:10:32;;;;;;;1999.90;999.90;;;;;;;;;;5089110;28;20215;-69
2023/10/28 13:12:59;;;;;;;1999.90;999.90;;;;;;;;;;5090417;28;20197;-68
2023/10/28 13:15:28;;;;;;;1999.90;999.90;;;;;;;;;;5089532;28;20387;-69
2023/10/28 13:17:56;;;;;;;1999.90;999.90;;;;;;;;;;5089783;28;20243;-69
2023/10/28 13:20:24;;;;;;;1999.90;999.90;;;;;;;;;;5088160;28;20351;-71
2023/10/28 13:22:51;;;;;;;1999.90;999.90;;;;;;;;;;5089430;28;20212;-72
2023/10/28 13:25:18;;;;;;;1999.90;999.90;;;;;;;;;;5088469;28;20202;-74
2023/10/28 13:27:46;;;;;;;1999.90;999.90;;;;;;;;;;5089637;28;20201;-73
2023/10/28 13:30:15;;;;;;;1999.90;999.90;;;;;;;;;;5088581;28;20546;-71
2023/10/28 13:32:44;;;;;;;1999.90;999.90;;;;;;;;;;5088211;28;20315;-71
2023/10/28 13:35:12;;;;;;;1999.90;999.90;;;;;;;;;;5089358;28;20196;-73
2023/10/28 13:37:39;;;;;;;1999.90;999.90;;;;;;;;;;5089563;28;20234;-74
2023/10/28 13:40:10;;;;;;;1999.90;999.90;;;;;;;;;;5087270;28;20722;-74
2023/10/28 13:42:37;;;;;;;1999.90;999.90;;;;;;;;;;5089980;28;20232;-73
2023/10/28 13:45:07;;;;;;;1999.90;999.90;;;;;;;;;;5089519;28;20571;-71